createdAt,value
2022-09-13T00:00:00.145Z,0
2022-09-13T00:05:00.310Z,0
2022-09-13T00:10:00.298Z,0
2022-09-13T00:15:00.281Z,0
2022-09-13T00:20:00.751Z,0
2022-09-13T00:25:00.109Z,0
2022-09-13T00:30:00.032Z,0
2022-09-13T00:35:00.236Z,0
2022-09-13T00:40:00.149Z,0
2022-09-13T00:45:01.926Z,0
2022-09-13T00:50:00.040Z,0
2022-09-13T00:55:00.201Z,0
2022-09-13T01:00:02.392Z,0
2022-09-13T01:05:00.801Z,0
2022-09-13T01:10:02.141Z,0
2022-09-13T01:15:00.151Z,0
2022-09-13T01:20:01.848Z,0
2022-09-13T01:25:09.860Z,0
2022-09-13T01:30:00.271Z,0
2022-09-13T01:35:05.841Z,0
2022-09-13T01:40:03.660Z,0
2022-09-13T01:45:03.969Z,0
2022-09-13T01:50:06.683Z,0
2022-09-13T01:55:04.902Z,0
2022-09-13T02:00:03.798Z,0
2022-09-13T02:05:02.871Z,0
2022-09-13T02:10:00.019Z,0
2022-09-13T02:15:00.034Z,0
2022-09-13T02:20:00.124Z,0
2022-09-13T02:25:00.071Z,0
2022-09-13T02:30:00.334Z,0
2022-09-13T02:35:00.266Z,0
2022-09-13T02:40:00.196Z,0
2022-09-13T02:45:00.006Z,0
2022-09-13T02:50:00.141Z,0
2022-09-13T02:55:05.351Z,0
2022-09-13T03:00:00.066Z,0
2022-09-13T03:05:00.151Z,0
2022-09-13T03:10:00.136Z,0
2022-09-13T03:15:00.253Z,0
2022-09-13T03:20:06.608Z,0
2022-09-13T03:25:00.218Z,0
2022-09-13T03:30:02.432Z,0
2022-09-13T03:35:00.134Z,0
2022-09-13T03:40:00.022Z,0
2022-09-13T03:45:00.135Z,0
2022-09-13T03:49:59.878Z,0
2022-09-13T03:55:00.157Z,0
2022-09-13T04:00:00.020Z,0
2022-09-13T04:05:00.007Z,0
2022-09-13T04:10:00.401Z,0
2022-09-13T04:14:59.935Z,0
2022-09-13T04:19:59.994Z,0
2022-09-13T04:25:02.205Z,0
2022-09-13T04:30:00.631Z,0
2022-09-13T04:35:00.150Z,0
2022-09-13T04:40:00.249Z,0
2022-09-13T04:44:59.927Z,0
2022-09-13T04:50:00.156Z,0
2022-09-13T04:55:00.132Z,0
2022-09-13T05:00:00.586Z,0
2022-09-13T05:05:00.094Z,0
2022-09-13T05:09:59.927Z,0.2
2022-09-13T05:14:59.997Z,0.9
2022-09-13T05:19:59.986Z,1.6
2022-09-13T05:24:59.851Z,2.2
2022-09-13T05:29:59.934Z,3.3
2022-09-13T05:35:00.097Z,4.8
2022-09-13T05:40:11.072Z,5.9
2022-09-13T05:44:59.903Z,7.9
2022-09-13T05:50:09.727Z,11.3
2022-09-13T05:54:59.763Z,14.4
2022-09-13T05:59:59.816Z,14.3
2022-09-13T06:04:59.950Z,19.5
2022-09-13T06:09:59.761Z,24.7
2022-09-13T06:14:59.798Z,25.5
2022-09-13T06:20:00.709Z,25.6
2022-09-13T06:24:59.949Z,27.1
2022-09-13T06:29:59.985Z,27.7
2022-09-13T06:35:00.012Z,21.8
2022-09-13T06:39:59.768Z,18.1
2022-09-13T06:44:59.846Z,19.4
2022-09-13T06:49:59.713Z,27.7
2022-09-13T06:55:00.319Z,39
2022-09-13T06:59:59.813Z,50
2022-09-13T07:04:59.825Z,60.1
2022-09-13T07:10:00.320Z,67
2022-09-13T07:14:59.890Z,67.1
2022-09-13T07:19:59.959Z,72.5
2022-09-13T07:25:00.147Z,77.1
2022-09-13T07:30:00.090Z,84.3
2022-09-13T07:34:59.930Z,75.2
2022-09-13T07:40:00.046Z,71.3
2022-09-13T07:45:00.288Z,87.9
2022-09-13T07:50:00.030Z,97.1
2022-09-13T07:54:59.742Z,117.8
2022-09-13T07:59:59.993Z,108.9
2022-09-13T08:04:59.783Z,93
2022-09-13T08:09:59.978Z,92.6
2022-09-13T08:14:59.826Z,87.2
2022-09-13T08:20:00.320Z,86
2022-09-13T08:24:59.649Z,91.8
2022-09-13T08:29:59.773Z,98.6
2022-09-13T08:34:59.766Z,97.7
2022-09-13T08:39:59.835Z,96.2
2022-09-13T08:44:59.990Z,98.3
2022-09-13T08:50:03.532Z,120
2022-09-13T08:54:59.728Z,135.5
2022-09-13T08:59:59.709Z,134.7
2022-09-13T09:04:59.931Z,150.5
2022-09-13T09:09:59.933Z,143.7
2022-09-13T09:14:59.959Z,146.1
2022-09-13T09:19:59.616Z,146.7
2022-09-13T09:24:59.797Z,161
2022-09-13T09:29:59.992Z,153.3
2022-09-13T09:34:59.742Z,166.6
2022-09-13T09:39:59.658Z,154.1
2022-09-13T09:45:01.933Z,132.4
2022-09-13T09:49:59.732Z,158.3
2022-09-13T09:55:03.888Z,174.5
2022-09-13T10:00:09.180Z,126.2
2022-09-13T10:04:59.682Z,83.4
2022-09-13T10:09:59.895Z,83.5
2022-09-13T10:15:13.210Z,116.6
2022-09-13T10:20:00.414Z,146.1
2022-09-13T10:25:12.817Z,170.6
2022-09-13T10:30:01.012Z,177.7
2022-09-13T10:34:59.866Z,180.4
2022-09-13T10:40:01.756Z,220
2022-09-13T10:44:59.748Z,224.8
2022-09-13T10:49:59.656Z,228.2
2022-09-13T10:54:59.715Z,241.8
2022-09-13T10:59:59.724Z,178.4
2022-09-13T11:04:59.911Z,178.1
2022-09-13T11:10:01.817Z,179
2022-09-13T11:15:03.620Z,214
2022-09-13T11:19:59.818Z,268.1
2022-09-13T11:24:59.803Z,256.3
2022-09-13T11:29:59.700Z,322.1
2022-09-13T11:34:59.506Z,200.3
2022-09-13T11:40:07.209Z,195.5
2022-09-13T11:45:07.569Z,354.6
2022-09-13T11:50:06.293Z,464.1
2022-09-13T11:54:59.661Z,556
2022-09-13T11:59:59.695Z,594.4
2022-09-13T12:05:20.919Z,541.8
2022-09-13T12:09:59.672Z,644.7
2022-09-13T12:14:59.711Z,694.4
2022-09-13T12:20:01.441Z,805.3
2022-09-13T12:25:01.766Z,898.3
2022-09-13T12:29:59.544Z,986.2
2022-09-13T12:34:59.755Z,1001.1
2022-09-13T12:39:59.471Z,917.2
2022-09-13T12:44:59.662Z,855.5
2022-09-13T12:50:36.944Z,936.7
2022-09-13T12:54:59.442Z,1028.9
2022-09-13T12:59:59.532Z,1055
2022-09-13T13:05:01.581Z,909.2
2022-09-13T13:09:59.493Z,657.6
2022-09-13T13:14:59.848Z,354.2
2022-09-13T13:19:59.655Z,306.8
2022-09-13T13:24:59.738Z,545.2
2022-09-13T13:30:40.924Z,425.3
2022-09-13T13:34:59.557Z,591.7
2022-09-13T13:40:22.881Z,356.1
2022-09-13T13:44:59.553Z,436.9
2022-09-13T13:50:08.264Z,575.1
2022-09-13T13:55:01.667Z,612.4
2022-09-13T13:59:59.412Z,716.8
2022-09-13T14:04:59.499Z,737.8
2022-09-13T14:10:04.794Z,669.5
2022-09-13T14:15:05.481Z,465.7
2022-09-13T14:20:02.525Z,313.5
2022-09-13T14:25:12.487Z,400.4
2022-09-13T14:29:59.867Z,300.7
2022-09-13T14:34:59.590Z,197.1
2022-09-13T14:39:59.765Z,201.2
2022-09-13T14:44:59.507Z,267.6
2022-09-13T14:49:59.560Z,307.4
2022-09-13T14:54:59.333Z,237.7
2022-09-13T14:59:59.379Z,196.3
2022-09-13T15:04:59.440Z,209.7
2022-09-13T15:09:59.358Z,236.6
2022-09-13T15:14:59.650Z,184.2
2022-09-13T15:20:02.271Z,243.7
2022-09-13T15:25:00.592Z,341.3
2022-09-13T15:29:59.650Z,273.3
2022-09-13T15:34:59.390Z,177.5
2022-09-13T15:39:59.567Z,130.1
2022-09-13T15:44:59.333Z,127.2
2022-09-13T15:49:59.692Z,119.6
2022-09-13T15:54:59.616Z,159.8
2022-09-13T16:00:04.042Z,150.2
2022-09-13T16:04:59.411Z,120.1
2022-09-13T16:09:59.536Z,100.3
2022-09-13T16:14:59.339Z,88.8
2022-09-13T16:19:59.494Z,83.5
2022-09-13T16:24:59.473Z,75.8
2022-09-13T16:29:59.537Z,63.3
2022-09-13T16:34:59.979Z,53.3
2022-09-13T16:39:59.376Z,47.9
2022-09-13T16:44:59.519Z,42
2022-09-13T16:49:59.534Z,38.7
2022-09-13T16:54:59.374Z,35.8
2022-09-13T16:59:59.573Z,34.3
2022-09-13T17:04:59.344Z,31.7
2022-09-13T17:09:59.461Z,29.2
2022-09-13T17:14:59.321Z,26.9
2022-09-13T17:19:59.454Z,23.8
2022-09-13T17:24:59.191Z,20.4
2022-09-13T17:29:59.391Z,16
2022-09-13T17:34:59.824Z,12.4
2022-09-13T17:39:59.341Z,9.2
2022-09-13T17:44:59.181Z,6.4
2022-09-13T17:49:59.375Z,4.1
2022-09-13T17:54:59.489Z,2.5
2022-09-13T17:59:59.633Z,1.4
2022-09-13T18:05:03.343Z,0.5
2022-09-13T18:09:59.405Z,0.2
2022-09-13T18:14:59.541Z,0.1
2022-09-13T18:19:59.381Z,0
2022-09-13T18:24:59.592Z,0
2022-09-13T18:29:59.404Z,0
2022-09-13T18:34:59.247Z,0
2022-09-13T18:39:59.475Z,0
2022-09-13T18:44:59.492Z,0
2022-09-13T18:49:59.140Z,0
2022-09-13T18:54:59.464Z,0
2022-09-13T18:59:59.473Z,0
2022-09-13T19:04:59.647Z,0
2022-09-13T19:09:59.766Z,0
2022-09-13T19:14:59.442Z,0
2022-09-13T19:19:59.584Z,0
2022-09-13T19:24:59.350Z,0
2022-09-13T19:30:00.630Z,0
2022-09-13T19:35:00.640Z,0
2022-09-13T19:40:00.636Z,0
2022-09-13T19:45:00.301Z,0
2022-09-13T19:50:00.440Z,0
2022-09-13T19:55:00.518Z,0
2022-09-13T20:00:00.582Z,0
2022-09-13T20:05:00.604Z,0
2022-09-13T20:10:00.521Z,0
2022-09-13T20:15:00.278Z,0
2022-09-13T20:20:00.345Z,0
2022-09-13T20:25:00.339Z,0
2022-09-13T20:30:00.786Z,0
2022-09-13T20:35:00.557Z,0
2022-09-13T20:40:00.737Z,0
2022-09-13T20:45:00.629Z,0
2022-09-13T20:50:00.263Z,0
2022-09-13T20:55:00.308Z,0
2022-09-13T21:00:01.092Z,0
2022-09-13T21:05:00.656Z,0
2022-09-13T21:10:00.350Z,0
2022-09-13T21:15:00.788Z,0
2022-09-13T21:20:00.186Z,0
2022-09-13T21:25:00.312Z,0
2022-09-13T21:30:00.268Z,0
2022-09-13T21:35:00.459Z,0
2022-09-13T21:40:00.360Z,0
2022-09-13T21:45:00.270Z,0
2022-09-13T21:50:00.695Z,0
2022-09-13T21:55:00.468Z,0
2022-09-13T22:00:00.252Z,0
2022-09-13T22:05:00.306Z,0
2022-09-13T22:10:00.431Z,0
2022-09-13T22:15:00.337Z,0
2022-09-13T22:20:00.361Z,0
2022-09-13T22:25:00.612Z,0
2022-09-13T22:30:00.567Z,0
2022-09-13T22:35:00.523Z,0
2022-09-13T22:40:00.398Z,0
2022-09-13T22:45:00.207Z,0
2022-09-13T22:50:00.393Z,0
2022-09-13T22:55:00.395Z,0
2022-09-13T23:00:00.223Z,0
2022-09-13T23:05:00.603Z,0
2022-09-13T23:10:00.414Z,0
2022-09-13T23:15:00.217Z,0
2022-09-13T23:20:00.108Z,0
2022-09-13T23:25:00.198Z,0
2022-09-13T23:30:00.250Z,0
2022-09-13T23:35:00.350Z,0
2022-09-13T23:40:00.660Z,0
2022-09-13T23:45:00.207Z,0
2022-09-13T23:50:00.073Z,0
2022-09-13T23:55:00.008Z,0
